Time;durP1;ratioP1;P1;durP2;ratioP2;P2;SDS_P1;SDS_P2;PMS_P1;PMS_P2;Temp;Humidity;BMP_temperature;BMP_pressure;BME280_temperature;BME280_humidity;BME280_pressure;Samples;Min_cycle;Max_cycle;Signal;HPM_P1;HPM_P2
2022/04/13 00:00:05;;;;;;;11.70;9.10;;;11.10;57.40;;;;;;5135737;27;20430;-46
2022/04/13 00:02:37;;;;;;;14.63;8.60;;;10.90;57.30;;;;;;5136060;27;20745;-45
2022/04/13 00:05:05;;;;;;;9.37;8.40;;;11.00;57.40;;;;;;5136092;27;20423;-44
2022/04/13 00:07:31;;;;;;;10.23;7.97;;;11.00;57.40;;;;;;5135959;27;20423;-45
2022/04/13 00:09:58;;;;;;;9.73;8.40;;;11.00;57.60;;;;;;5135353;27;20539;-46
2022/04/13 00:12:25;;;;;;;10.30;8.77;;;10.90;57.70;;;;;;5135770;27;20469;-45
2022/04/13 00:14:51;;;;;;;13.50;8.80;;;11.50;58.20;;;;;;5135961;27;20478;-47
2022/04/13 00:17:18;;;;;;;11.30;9.10;;;11.30;58.10;;;;;;5136623;27;20427;-45
2022/04/13 00:19:46;;;;;;;12.60;8.63;;;10.90;58.00;;;;;;5135048;27;20942;-46
2022/04/13 00:22:12;;;;;;;12.33;8.40;;;11.30;58.20;;;;;;5134813;27;20423;-46
2022/04/13 00:24:39;;;;;;;12.97;8.13;;;10.50;57.60;;;;;;5134800;27;20493;-46
2022/04/13 00:27:06;;;;;;;13.47;9.60;;;11.00;58.00;;;;;;5134200;27;20423;-47
2022/04/13 00:29:32;;;;;;;11.90;8.30;;;10.90;58.40;;;;;;5134604;27;20439;-45
2022/04/13 00:31:59;;;;;;;11.80;8.80;;;11.00;58.50;;;;;;5134485;27;20458;-45
2022/04/13 00:34:26;;;;;;;16.40;8.80;;;11.10;58.50;;;;;;5134248;27;20494;-47
2022/04/13 00:36:56;;;;;;;11.00;8.97;;;10.80;58.50;;;;;;5134602;27;20424;-45
2022/04/13 00:39:23;;;;;;;14.80;8.80;;;10.70;58.50;;;;;;5134426;27;20926;-45
2022/04/13 00:41:56;;;;;;;15.90;8.73;;;10.40;58.50;;;;;;5134865;27;20416;-46
2022/04/13 00:44:23;;;;;;;11.83;8.33;;;10.80;58.90;;;;;;5134778;27;20463;-45
2022/04/13 00:46:50;;;;;;;13.37;9.07;;;10.60;58.70;;;;;;5134410;27;20419;-45
2022/04/13 00:49:18;;;;;;;11.53;9.47;;;10.60;58.90;;;;;;5133726;27;20431;-46
2022/04/13 00:51:44;;;;;;;16.70;10.20;;;10.50;59.00;;;;;;5133989;27;20431;-45
2022/04/13 00:54:14;;;;;;;10.80;8.30;;;10.00;58.70;;;;;;5123455;27;20483;-44
2022/04/13 00:56:42;;;;;;;13.60;9.57;;;10.60;59.40;;;;;;5113263;28;20435;-45
2022/04/13 00:59:13;;;;;;;11.77;9.43;;;10.90;59.70;;;;;;5094550;28;20468;-46
2022/04/13 01:01:42;;;;;;;14.30;9.47;;;10.40;59.40;;;;;;5095105;28;20561;-45
2022/04/13 01:04:12;;;;;;;14.73;8.93;;;10.40;59.50;;;;;;5112947;28;20479;-46
2022/04/13 01:06:39;;;;;;;12.43;8.77;;;10.40;59.60;;;;;;5113229;28;20447;-46
2022/04/13 01:09:07;;;;;;;10.53;8.70;;;10.50;59.60;;;;;;5112799;28;20431;-45
2022/04/13 01:11:34;;;;;;;13.93;9.40;;;9.90;60.30;;;;;;5113380;28;20420;-45
2022/04/13 01:14:01;;;;;;;13.83;9.67;;;10.80;60.10;;;;;;5113183;28;20478;-47
2022/04/13 01:16:28;;;;;;;11.40;8.33;;;10.20;59.70;;;;;;5113304;28;20436;-45
2022/04/13 01:18:55;;;;;;;14.20;9.57;;;10.80;60.60;;;;;;5114226;28;20432;-45
2022/04/13 01:21:45;;;;;;;16.17;11.77;;;10.20;59.90;;;;;;5115061;28;20416;-43
2022/04/13 01:24:14;;;;;;;13.40;10.87;;;10.50;60.60;;;;;;5129370;27;20467;-44
2022/04/13 01:26:41;;;;;;;10.70;9.53;;;10.40;60.30;;;;;;5134484;27;20427;-46
2022/04/13 01:29:09;;;;;;;14.93;8.93;;;10.40;60.60;;;;;;5134931;27;20442;-45
2022/04/13 01:31:35;;;;;;;11.50;9.40;;;9.80;61.20;;;;;;5133658;27;20887;-46
2022/04/13 01:34:02;;;;;;;12.13;9.23;;;10.40;60.80;;;;;;5134105;27;20475;-45
2022/04/13 01:36:29;;;;;;;11.70;9.47;;;10.00;60.60;;;;;;5133949;27;20427;-45
2022/04/13 01:38:56;;;;;;;13.33;9.30;;;10.00;60.70;;;;;;5132897;27;20427;-46
2022/04/13 01:41:24;;;;;;;11.63;10.10;;;10.30;61.00;;;;;;5133414;27;20423;-44
2022/04/13 01:43:50;;;;;;;10.70;9.50;;;10.30;61.40;;;;;;5133335;27;20455;-46
2022/04/13 01:46:20;;;;;;;14.33;9.57;;;10.50;61.70;;;;;;5133156;27;20434;-44
2022/04/13 01:48:47;;;;;;;13.40;9.60;;;10.20;61.30;;;;;;5132688;27;20439;-45
2022/04/13 01:51:14;;;;;;;14.43;9.57;;;10.20;61.30;;;;;;5132981;27;20423;-45
2022/04/13 01:53:41;;;;;;;12.57;8.50;;;10.30;61.40;;;;;;5126936;27;20552;-46
2022/04/13 01:56:07;;;;;;;12.17;9.77;;;10.30;61.80;;;;;;5111999;28;20475;-44
2022/04/13 01:58:35;;;;;;;14.10;9.70;;;10.60;62.30;;;;;;5111617;28;20939;-47
2022/04/13 02:01:02;;;;;;;12.30;8.70;;;10.20;61.90;;;;;;5110843;28;20518;-44
2022/04/13 02:03:30;;;;;;;11.70;8.67;;;10.00;62.00;;;;;;5111899;28;20454;-45
2022/04/13 02:05:56;;;;;;;11.50;8.77;;;9.90;63.30;;;;;;5112078;28;20432;-46
2022/04/13 02:08:24;;;;;;;13.10;9.40;;;9.80;63.10;;;;;;5112021;28;20424;-45
2022/04/13 02:10:51;;;;;;;18.37;9.97;;;10.30;62.60;;;;;;5112426;28;20828;-45
2022/04/13 02:13:17;;;;;;;19.00;10.43;;;10.20;62.60;;;;;;5112057;28;20451;-44
2022/04/13 02:15:45;;;;;;;14.87;9.80;;;9.90;63.30;;;;;;5112279;28;20486;-45
2022/04/13 02:18:12;;;;;;;13.03;10.47;;;10.00;62.60;;;;;;5112243;28;20436;-45
2022/04/13 02:20:38;;;;;;;11.87;8.53;;;10.00;62.70;;;;;;5111596;28;20436;-45
2022/04/13 02:23:05;;;;;;;11.63;8.50;;;9.90;63.80;;;;;;5117445;27;20458;-45
2022/04/13 02:25:34;;;;;;;10.53;9.40;;;10.10;63.10;;;;;;5132370;27;20427;-45
2022/04/13 02:28:01;;;;;;;14.93;10.13;;;9.70;63.90;;;;;;5114242;27;20536;-44
2022/04/13 02:30:28;;;;;;;13.80;9.43;;;9.90;64.40;;;;;;5132279;27;20919;-44
2022/04/13 02:32:56;;;;;;;11.80;9.60;;;10.00;63.40;;;;;;5132308;27;20459;-47
2022/04/13 02:35:23;;;;;;;14.20;9.40;;;10.20;63.70;;;;;;5132594;27;20537;-47
2022/04/13 02:37:49;;;;;;;14.30;10.97;;;10.00;63.60;;;;;;5132687;27;20523;-44
2022/04/13 02:40:16;;;;;;;13.40;10.07;;;10.20;64.00;;;;;;5132824;27;20954;-45
2022/04/13 02:42:43;;;;;;;11.80;9.80;;;9.80;64.80;;;;;;5132813;27;21125;-43
2022/04/13 02:45:10;;;;;;;13.50;9.07;;;10.10;64.00;;;;;;5132743;27;20786;-44
2022/04/13 02:47:37;;;;;;;14.80;10.97;;;9.80;64.90;;;;;;5132379;27;20435;-45
2022/04/13 02:50:07;;;;;;;15.83;9.33;;;9.90;65.30;;;;;;5131730;27;20768;-46
2022/04/13 02:52:33;;;;;;;10.90;9.00;;;9.60;64.90;;;;;;5132865;27;20451;-45
2022/04/13 02:55:01;;;;;;;16.10;10.27;;;9.70;64.90;;;;;;5115039;27;20475;-46
2022/04/13 02:57:28;;;;;;;19.43;10.30;;;9.70;65.20;;;;;;5112842;28;20488;-46
2022/04/13 02:59:55;;;;;;;11.07;9.07;;;9.50;65.30;;;;;;5111754;28;20451;-46
2022/04/13 03:02:21;;;;;;;18.00;11.20;;;9.70;65.70;;;;;;5112228;28;20754;-48
2022/04/13 03:04:49;;;;;;;12.93;10.17;;;10.00;64.80;;;;;;5112471;28;20443;-47
2022/04/13 03:07:18;;;;;;;14.20;10.30;;;9.70;65.90;;;;;;5112083;28;20582;-47
2022/04/13 03:09:45;;;;;;;17.77;10.33;;;9.70;66.20;;;;;;5111803;28;20436;-46
2022/04/13 03:12:13;;;;;;;17.33;10.50;;;9.80;66.60;;;;;;5111808;28;20458;-45
2022/04/13 03:14:40;;;;;;;12.97;10.67;;;9.50;65.70;;;;;;5114047;28;20471;-45
2022/04/13 03:17:07;;;;;;;13.60;10.17;;;10.00;65.10;;;;;;5112602;28;20435;-42
2022/04/13 03:19:34;;;;;;;12.63;9.57;;;9.30;66.20;;;;;;5112177;28;20885;-46
2022/04/13 03:22:00;;;;;;;16.03;10.77;;;9.40;66.10;;;;;;5111606;28;20432;-44
2022/04/13 03:24:29;;;;;;;13.97;10.77;;;9.60;66.70;;;;;;5128723;27;20472;-45
2022/04/13 03:26:55;;;;;;;15.17;10.50;;;9.60;66.70;;;;;;5132803;28;20423;-43
2022/04/13 03:29:22;;;;;;;16.37;10.53;;;9.90;67.30;;;;;;5133520;28;20449;-46
2022/04/13 03:31:49;;;;;;;16.30;10.20;;;9.60;67.10;;;;;;5132378;28;20455;-46
2022/04/13 03:34:20;;;;;;;13.43;9.30;;;9.50;67.00;;;;;;5132050;28;20534;-45
2022/04/13 03:36:47;;;;;;;17.80;10.20;;;9.70;67.40;;;;;;5132110;28;20462;-45
2022/04/13 03:39:14;;;;;;;12.37;10.10;;;8.90;66.50;;;;;;5131294;28;20422;-44
2022/04/13 03:41:42;;;;;;;13.40;10.30;;;9.70;67.60;;;;;;5132087;28;20454;-46
2022/04/13 03:44:09;;;;;;;14.30;9.77;;;9.30;67.10;;;;;;5132395;28;20478;-45
2022/04/13 03:46:36;;;;;;;16.70;12.03;;;9.50;67.40;;;;;;5131915;28;20427;-44
2022/04/13 03:49:02;;;;;;;15.80;10.57;;;9.40;67.50;;;;;;5131585;28;20904;-45
2022/04/13 03:51:29;;;;;;;15.10;10.40;;;9.80;67.90;;;;;;5113148;28;20450;-45
2022/04/13 03:53:55;;;;;;;13.00;9.97;;;9.00;67.10;;;;;;5123656;28;20452;-44
2022/04/13 03:56:22;;;;;;;14.83;10.67;;;9.60;67.90;;;;;;5111518;28;20475;-44
2022/04/13 03:58:50;;;;;;;17.53;10.57;;;9.10;67.40;;;;;;5111442;28;20947;-47
2022/04/13 04:01:17;;;;;;;14.30;10.43;;;9.50;67.70;;;;;;5112315;28;20442;-45
2022/04/13 04:03:43;;;;;;;15.13;10.40;;;9.30;67.70;;;;;;5115225;28;20455;-45
2022/04/13 04:06:10;;;;;;;16.50;10.83;;;9.60;67.90;;;;;;5114874;28;20862;-44
2022/04/13 04:08:36;;;;;;;16.83;11.10;;;9.30;67.60;;;;;;5114614;28;20442;-45
2022/04/13 04:11:03;;;;;;;14.53;10.20;;;9.20;67.90;;;;;;5114314;28;20466;-47
2022/04/13 04:13:30;;;;;;;11.90;10.10;;;9.40;68.10;;;;;;5114228;28;20443;-43
2022/04/13 04:15:59;;;;;;;14.43;10.40;;;9.10;67.90;;;;;;5114255;28;20924;-44
2022/04/13 04:18:25;;;;;;;12.23;10.20;;;9.50;68.60;;;;;;5113896;28;20443;-49
2022/04/13 04:20:52;;;;;;;14.27;10.30;;;9.10;68.30;;;;;;5114090;28;20432;-44
2022/04/13 04:23:19;;;;;;;16.47;11.33;;;9.50;68.60;;;;;;5121401;27;20457;-44
2022/04/13 04:25:46;;;;;;;13.40;10.57;;;9.40;68.10;;;;;;5134217;27;20426;-45
2022/04/13 04:28:12;;;;;;;14.83;10.87;;;9.30;68.60;;;;;;5134430;27;20437;-44
2022/04/13 04:30:40;;;;;;;15.83;10.60;;;9.50;68.90;;;;;;5134143;27;20431;-43
2022/04/13 04:33:09;;;;;;;16.60;10.53;;;9.60;69.00;;;;;;5134309;27;20462;-44
2022/04/13 04:35:36;;;;;;;14.80;10.60;;;9.20;68.70;;;;;;5134278;27;20463;-47
2022/04/13 04:38:03;;;;;;;14.83;11.07;;;9.70;68.80;;;;;;5134163;27;20423;-45
2022/04/13 04:40:30;;;;;;;15.97;11.30;;;9.30;69.40;;;;;;5115453;27;20963;-46
2022/04/13 04:42:58;;;;;;;16.10;11.97;;;9.60;69.00;;;;;;5134313;27;20447;-45
2022/04/13 04:45:25;;;;;;;14.00;10.50;;;9.50;68.70;;;;;;5134163;27;20435;-46
2022/04/13 04:47:53;;;;;;;13.63;9.83;;;9.20;68.50;;;;;;5134646;27;20780;-43
2022/04/13 04:50:23;;;;;;;16.63;10.50;;;9.40;68.60;;;;;;5134000;27;20621;-46
2022/04/13 04:52:50;;;;;;;13.40;11.03;;;9.50;68.70;;;;;;5134242;27;20816;-45
2022/04/13 04:55:18;;;;;;;14.73;9.30;;;9.00;68.00;;;;;;5114578;27;20471;-46
2022/04/13 04:57:46;;;;;;;15.10;11.57;;;9.40;68.60;;;;;;5113646;28;20863;-44
2022/04/13 05:00:16;;;;;;;17.80;10.87;;;9.80;68.90;;;;;;5112614;28;20440;-45
2022/04/13 05:02:43;;;;;;;14.83;10.97;;;9.40;68.40;;;;;;5113066;28;20455;-45
2022/04/13 05:05:10;;;;;;;16.70;10.50;;;10.00;67.70;;;;;;5113258;28;20893;-45
2022/04/13 05:07:38;;;;;;;13.40;10.20;;;9.50;68.40;;;;;;5113134;28;20947;-46
2022/04/13 05:10:06;;;;;;;16.03;9.60;;;10.10;67.80;;;;;;5112334;28;20518;-46
2022/04/13 05:12:42;;;;;;;12.70;10.13;;;9.50;68.10;;;;;;5111963;28;20546;-45
2022/04/13 05:15:09;;;;;;;21.43;11.73;;;9.70;68.30;;;;;;5112965;28;20878;-48
2022/04/13 05:17:37;;;;;;;13.00;10.03;;;10.00;67.30;;;;;;5112677;28;20431;-45
2022/04/13 05:20:05;;;;;;;15.23;10.97;;;9.50;68.00;;;;;;5112698;28;20493;-46
2022/04/13 05:22:32;;;;;;;15.53;10.37;;;9.70;68.00;;;;;;5113148;27;20784;-45
2022/04/13 05:25:04;;;;;;;14.27;10.93;;;9.70;68.00;;;;;;5133348;27;20767;-45
2022/04/13 05:27:31;;;;;;;17.60;11.20;;;10.00;67.00;;;;;;5133453;27;20423;-44
2022/04/13 05:29:58;;;;;;;14.70;10.40;;;9.90;67.80;;;;;;5132953;27;20919;-46
2022/04/13 05:35:00;;;;;;;17.60;10.90;;;10.00;66.50;;;;;;5032224;28;20477;-44
2022/04/13 05:37:27;;;;;;;18.17;11.40;;;10.50;66.80;;;;;;5033650;28;20438;-46
2022/04/13 05:39:54;;;;;;;13.37;10.40;;;10.10;66.20;;;;;;5033663;28;20529;-45
2022/04/13 05:42:24;;;;;;;12.83;11.30;;;10.10;66.10;;;;;;5033499;28;20432;-45
2022/04/13 05:44:51;;;;;;;13.03;10.37;;;10.40;66.40;;;;;;5014016;28;20446;-45
2022/04/13 05:47:18;;;;;;;17.43;10.33;;;10.40;65.80;;;;;;5013413;28;20403;-46
2022/04/13 05:49:44;;;;;;;15.93;11.10;;;10.50;66.00;;;;;;5013520;28;20437;-46
2022/04/13 05:52:11;;;;;;;13.93;10.73;;;10.40;65.70;;;;;;5014001;28;20417;-45
2022/04/13 05:54:38;;;;;;;12.70;10.23;;;10.50;65.10;;;;;;5013705;28;20461;-45
2022/04/13 05:57:05;;;;;;;14.97;10.60;;;10.60;65.40;;;;;;5013486;28;20530;-45
2022/04/13 05:59:34;;;;;;;16.03;11.13;;;10.50;65.30;;;;;;5013192;28;20459;-46
2022/04/13 06:02:00;;;;;;;19.53;11.97;;;11.00;65.30;;;;;;5013500;28;20933;-44
2022/04/13 06:04:27;;;;;;;15.30;11.50;;;11.50;65.80;;;;;;5013173;28;20460;-46
2022/04/13 06:06:55;;;;;;;15.80;10.97;;;10.90;64.80;;;;;;5013160;28;20432;-45
2022/04/13 06:09:22;;;;;;;17.77;11.80;;;11.50;65.10;;;;;;5013265;28;20436;-46
2022/04/13 06:11:48;;;;;;;14.53;10.53;;;11.20;64.80;;;;;;5013833;28;20429;-45
2022/04/13 06:14:15;;;;;;;13.67;10.80;;;11.30;64.50;;;;;;5012995;28;20452;-46
2022/04/13 06:16:43;;;;;;;19.17;11.37;;;11.20;65.10;;;;;;5012888;28;20545;-46
2022/04/13 06:19:10;;;;;;;16.20;11.77;;;11.60;64.20;;;;;;5013121;28;20528;-47
2022/04/13 06:21:37;;;;;;;21.10;10.87;;;11.60;64.10;;;;;;5013103;28;20807;-45
2022/04/13 06:24:04;;;;;;;19.90;12.03;;;11.30;62.90;;;;;;5012321;28;20469;-46
2022/04/13 06:26:31;;;;;;;17.47;11.50;;;11.70;63.60;;;;;;5012665;28;20432;-45
2022/04/13 06:28:57;;;;;;;17.03;11.40;;;11.60;62.80;;;;;;5012943;28;20941;-45
2022/04/13 06:31:24;;;;;;;16.97;10.90;;;11.40;62.60;;;;;;5013514;28;20443;-45
2022/04/13 06:33:52;;;;;;;18.90;11.00;;;12.10;62.70;;;;;;5012748;28;21051;-48
2022/04/13 06:36:19;;;;;;;18.53;11.43;;;11.60;62.40;;;;;;5013118;28;20532;-46
2022/04/13 06:38:46;;;;;;;15.20;10.80;;;12.00;62.50;;;;;;5012309;28;20975;-46
2022/04/13 06:41:13;;;;;;;12.40;10.50;;;12.30;62.60;;;;;;4994764;28;20473;-47
2022/04/13 06:43:40;;;;;;;16.23;10.90;;;12.30;62.40;;;;;;5012650;28;20552;-45
2022/04/13 06:46:07;;;;;;;14.27;9.83;;;11.80;61.30;;;;;;5013780;28;20434;-46
2022/04/13 06:48:34;;;;;;;20.50;10.27;;;12.40;61.30;;;;;;5012915;28;20434;-46
2022/04/13 06:51:03;;;;;;;16.73;10.20;;;12.70;62.00;;;;;;5013281;28;20535;-46
2022/04/13 06:53:29;;;;;;;14.00;10.73;;;12.40;61.70;;;;;;5012972;28;20499;-46
2022/04/13 06:55:56;;;;;;;18.43;12.90;;;12.30;61.10;;;;;;5012827;28;20531;-46
2022/04/13 06:58:23;;;;;;;14.57;9.93;;;12.70;61.40;;;;;;5013212;28;20492;-47
2022/04/13 07:00:49;;;;;;;19.57;12.03;;;12.80;62.00;;;;;;5012610;28;20469;-45
2022/04/13 07:03:16;;;;;;;12.10;10.07;;;12.50;60.80;;;;;;5012526;28;20963;-47
2022/04/13 07:05:43;;;;;;;16.73;10.90;;;12.60;61.00;;;;;;5013022;28;20442;-46
2022/04/13 07:08:12;;;;;;;15.13;11.77;;;12.50;60.80;;;;;;5012345;28;20446;-44
2022/04/13 07:10:38;;;;;;;18.03;11.90;;;12.80;60.70;;;;;;5012276;28;20800;-45
2022/04/13 07:13:07;;;;;;;16.40;10.97;;;12.60;60.30;;;;;;5012629;28;20995;-46
2022/04/13 07:15:33;;;;;;;15.83;11.63;;;12.80;60.90;;;;;;5012785;28;21200;-46
2022/04/13 07:18:00;;;;;;;15.13;10.70;;;12.70;60.40;;;;;;5012379;28;20444;-46
2022/04/13 07:20:27;;;;;;;18.00;11.03;;;13.20;60.80;;;;;;5012337;28;20978;-46
2022/04/13 07:22:54;;;;;;;18.17;10.90;;;13.10;60.70;;;;;;5012287;28;21036;-47
2022/04/13 07:25:23;;;;;;;17.63;11.97;;;12.90;60.00;;;;;;5013216;28;20436;-46
2022/04/13 07:27:50;;;;;;;15.53;10.10;;;13.20;60.40;;;;;;5012707;28;20435;-46
2022/04/13 07:30:17;;;;;;;15.60;10.67;;;12.90;60.00;;;;;;5012426;28;20466;-46
2022/04/13 07:32:44;;;;;;;14.50;9.33;;;13.40;60.00;;;;;;5012664;28;20875;-46
2022/04/13 07:35:11;;;;;;;15.60;10.10;;;13.30;59.70;;;;;;5012827;28;20478;-48
2022/04/13 07:37:39;;;;;;;13.80;9.57;;;13.50;59.80;;;;;;5016364;28;20504;-45
2022/04/13 07:40:08;;;;;;;15.90;9.90;;;13.30;59.50;;;;;;4999058;28;20466;-45
2022/04/13 07:42:36;;;;;;;14.40;9.63;;;13.40;59.20;;;;;;5016799;28;20899;-44
2022/04/13 07:45:04;;;;;;;12.70;9.60;;;13.60;59.20;;;;;;5016991;28;20444;-45
2022/04/13 07:47:30;;;;;;;18.40;10.43;;;13.60;58.80;;;;;;5016798;28;20439;-46
2022/04/13 07:49:57;;;;;;;13.63;9.87;;;13.70;59.60;;;;;;5015984;28;20445;-46
2022/04/13 07:52:24;;;;;;;16.13;10.20;;;13.90;59.20;;;;;;4998963;28;20455;-46
2022/04/13 07:54:51;;;;;;;13.90;10.07;;;13.60;59.00;;;;;;4998679;28;20459;-45
2022/04/13 07:57:17;;;;;;;12.33;10.33;;;13.80;58.70;;;;;;5016326;28;20472;-45
2022/04/13 07:59:45;;;;;;;14.87;10.80;;;14.00;58.40;;;;;;5016018;28;20443;-46
2022/04/13 08:02:12;;;;;;;18.70;11.10;;;14.00;58.50;;;;;;5016100;28;20466;-46
2022/04/13 08:04:39;;;;;;;15.67;9.47;;;14.10;58.60;;;;;;5016318;28;20970;-47
2022/04/13 08:07:05;;;;;;;14.13;10.10;;;13.90;58.40;;;;;;5016538;28;20467;-46
2022/04/13 08:09:33;;;;;;;13.60;10.13;;;14.10;58.00;;;;;;5015865;28;20459;-47
2022/04/13 08:12:00;;;;;;;20.13;10.50;;;13.80;57.40;;;;;;5015812;28;20436;-46
2022/04/13 08:14:27;;;;;;;15.30;10.20;;;13.90;57.30;;;;;;5015578;28;20804;-45
2022/04/13 08:16:54;;;;;;;14.23;10.57;;;14.40;57.80;;;;;;5015344;28;20482;-46
2022/04/13 08:19:21;;;;;;;12.27;8.90;;;14.90;58.20;;;;;;5015419;28;20442;-45
2022/04/13 08:21:48;;;;;;;21.03;11.20;;;14.60;58.30;;;;;;5015775;28;20952;-46
2022/04/13 08:24:17;;;;;;;12.73;9.57;;;14.70;57.20;;;;;;4995176;28;20473;-46
2022/04/13 08:26:44;;;;;;;12.97;9.57;;;14.70;57.30;;;;;;4996216;28;20527;-46
2022/04/13 08:29:10;;;;;;;13.00;10.10;;;14.90;57.20;;;;;;4996166;28;20429;-46
2022/04/13 08:31:37;;;;;;;18.30;11.60;;;14.90;57.00;;;;;;4996086;28;20437;-46
2022/04/13 08:34:05;;;;;;;20.43;10.50;;;14.70;56.80;;;;;;4995508;28;20527;-46
2022/04/13 08:36:31;;;;;;;12.60;10.10;;;14.90;56.70;;;;;;4995318;28;20480;-46
2022/04/13 08:38:58;;;;;;;16.27;11.07;;;15.60;57.20;;;;;;4995645;28;20443;-46
2022/04/13 08:41:34;;;;;;;15.87;10.30;;;15.30;56.70;;;;;;4995767;28;20440;-46
2022/04/13 08:44:08;;;;;;;12.43;9.63;;;14.90;56.00;;;;;;4996306;28;20462;-45
2022/04/13 08:46:40;;;;;;;16.63;11.40;;;15.40;56.20;;;;;;5004778;28;20450;-45
2022/04/13 08:49:10;;;;;;;14.90;9.73;;;15.50;56.00;;;;;;5014278;28;20541;-47
2022/04/13 08:51:39;;;;;;;12.97;9.20;;;15.60;55.80;;;;;;5014450;28;20433;-47
2022/04/13 08:54:12;;;;;;;14.80;11.00;;;15.90;56.20;;;;;;5014802;28;20464;-46
2022/04/13 08:56:40;;;;;;;14.17;10.00;;;15.60;55.70;;;;;;5011965;28;20492;-47
2022/04/13 08:59:16;;;;;;;17.40;11.23;;;15.60;55.70;;;;;;5013653;28;20437;-46
2022/04/13 09:01:51;;;;;;;14.70;9.80;;;15.90;55.90;;;;;;5014675;28;20456;-45
2022/04/13 09:04:24;;;;;;;15.47;10.17;;;15.70;55.50;;;;;;5015287;28;20483;-46
2022/04/13 09:06:51;;;;;;;14.57;10.27;;;15.90;55.40;;;;;;5014685;28;20461;-47
2022/04/13 09:09:24;;;;;;;15.50;10.17;;;15.50;55.00;;;;;;5014243;28;20436;-46
2022/04/13 09:11:52;;;;;;;14.27;10.80;;;15.90;55.30;;;;;;5014570;28;20870;-46
2022/04/13 09:14:19;;;;;;;21.37;11.10;;;16.10;55.60;;;;;;5014468;28;20660;-45
2022/04/13 09:16:45;;;;;;;13.30;10.57;;;16.00;55.40;;;;;;5014411;28;20517;-47
2022/04/13 09:19:12;;;;;;;20.87;10.90;;;15.90;55.40;;;;;;5012926;28;20530;-48
2022/04/13 09:21:41;;;;;;;17.27;10.40;;;16.10;55.40;;;;;;5014361;28;20913;-46
2022/04/13 09:24:10;;;;;;;14.03;10.23;;;16.00;55.30;;;;;;5014324;28;20467;-46
2022/04/13 09:26:38;;;;;;;14.93;9.67;;;16.30;55.50;;;;;;5013984;28;20528;-44
2022/04/13 09:29:04;;;;;;;11.83;9.23;;;16.20;55.20;;;;;;5013688;28;20459;-43
2022/04/13 09:31:32;;;;;;;11.77;10.03;;;16.10;55.00;;;;;;5013319;28;20851;-42
2022/04/13 09:33:58;;;;;;;12.93;9.30;;;16.50;55.20;;;;;;5013373;28;20999;-44
2022/04/13 09:36:26;;;;;;;15.73;10.10;;;16.30;54.70;;;;;;5013830;28;20482;-46
2022/04/13 09:38:56;;;;;;;12.33;9.10;;;16.00;54.50;;;;;;5013188;28;20925;-44
2022/04/13 09:41:33;;;;;;;15.00;10.80;;;15.70;54.20;;;;;;5014219;28;20918;-43
2022/04/13 09:44:00;;;;;;;13.53;9.23;;;16.00;54.30;;;;;;5013787;28;20451;-45
2022/04/13 09:46:28;;;;;;;12.43;9.40;;;16.30;54.90;;;;;;5013656;28;20425;-42
2022/04/13 09:49:08;;;;;;;14.40;9.70;;;16.30;54.90;;;;;;5013345;28;20445;-42
2022/04/13 09:51:39;;;;;;;16.63;10.40;;;16.40;54.70;;;;;;5013571;28;20452;-44
2022/04/13 09:54:09;;;;;;;17.53;10.40;;;16.40;55.10;;;;;;5015060;28;20455;-43
2022/04/13 09:56:37;;;;;;;12.87;9.23;;;16.50;54.60;;;;;;5016763;28;20441;-44
2022/04/13 09:59:06;;;;;;;16.27;10.20;;;16.50;54.50;;;;;;5014208;28;20452;-45
2022/04/13 10:01:34;;;;;;;13.13;9.70;;;16.70;54.70;;;;;;5013177;28;20441;-43
2022/04/13 10:04:03;;;;;;;14.73;9.47;;;16.50;54.40;;;;;;4995652;28;20478;-44
2022/04/13 10:06:30;;;;;;;13.70;9.60;;;16.80;54.50;;;;;;5013071;28;20449;-43
2022/04/13 10:09:01;;;;;;;14.13;8.83;;;16.60;54.50;;;;;;5012652;28;20436;-42
2022/04/13 10:11:29;;;;;;;12.30;9.50;;;17.10;54.70;;;;;;5012913;28;20780;-41
2022/04/13 10:13:56;;;;;;;12.43;8.93;;;16.70;54.20;;;;;;5012621;28;20464;-44
2022/04/13 10:16:23;;;;;;;12.70;9.37;;;17.10;54.30;;;;;;5012754;28;20453;-42
2022/04/13 10:18:54;;;;;;;14.63;10.90;;;17.30;54.20;;;;;;5012305;28;21023;-44
2022/04/13 10:21:34;;;;;;;13.07;9.40;;;17.50;54.40;;;;;;5012751;28;20561;-44
2022/04/13 10:24:00;;;;;;;16.87;10.73;;;17.70;53.80;;;;;;5011782;28;20463;-46
2022/04/13 10:26:28;;;;;;;16.50;9.50;;;17.50;54.20;;;;;;5012407;28;20448;-46
2022/04/13 10:28:55;;;;;;;12.67;8.97;;;17.80;54.20;;;;;;5012758;28;20453;-46
2022/04/13 10:31:22;;;;;;;11.13;8.90;;;17.70;53.50;;;;;;5012736;28;20444;-47
2022/04/13 10:33:51;;;;;;;11.30;8.77;;;17.50;53.00;;;;;;5012581;28;20824;-47
2022/04/13 10:36:19;;;;;;;14.80;8.87;;;17.60;52.90;;;;;;5013065;28;20441;-47
2022/04/13 10:38:46;;;;;;;11.77;8.43;;;17.80;53.10;;;;;;5012208;28;20523;-47
2022/04/13 10:41:16;;;;;;;14.10;8.40;;;17.50;52.80;;;;;;5012605;28;20439;-47
2022/04/13 10:43:49;;;;;;;12.13;8.90;;;17.90;52.90;;;;;;5011283;28;20482;-46
2022/04/13 10:46:20;;;;;;;10.57;8.47;;;17.90;52.50;;;;;;5012479;28;20454;-46
2022/04/13 10:48:52;;;;;;;9.73;8.40;;;18.00;52.60;;;;;;5012033;28;20434;-46
2022/04/13 10:51:23;;;;;;;11.57;8.70;;;17.80;52.30;;;;;;5012754;28;20437;-47
2022/04/13 10:53:56;;;;;;;16.30;9.20;;;17.50;52.30;;;;;;5011339;28;20482;-46
2022/04/13 10:56:27;;;;;;;10.00;8.03;;;17.90;52.70;;;;;;5012381;28;20444;-45
2022/04/13 10:59:02;;;;;;;12.97;9.30;;;17.90;52.90;;;;;;5012312;28;20491;-47
2022/04/13 11:01:31;;;;;;;12.70;8.93;;;17.70;52.50;;;;;;5012196;28;20533;-45
2022/04/13 11:03:59;;;;;;;9.83;7.97;;;17.90;52.30;;;;;;5012015;28;20454;-46
2022/04/13 11:06:26;;;;;;;11.80;8.07;;;17.90;52.00;;;;;;5012525;28;20459;-46
2022/04/13 11:08:58;;;;;;;11.47;8.30;;;18.10;52.30;;;;;;5012086;28;20452;-48
2022/04/13 11:11:28;;;;;;;12.23;8.53;;;18.20;52.10;;;;;;5011936;28;20438;-47
2022/04/13 11:14:21;;;;;;;14.00;9.13;;;18.10;52.20;;;;;;5012601;28;20471;-46
2022/04/13 11:20:24;;;;;;;10.47;8.13;;;18.30;51.90;;;;;;4970054;28;20500;-46
2022/04/13 11:23:59;;;;;;;11.00;8.33;;;18.30;51.40;;;;;;4971548;28;20927;-46
2022/04/13 11:27:04;;;;;;;10.60;8.00;;;18.40;51.70;;;;;;4895128;28;20801;-46
2022/04/13 11:33:01;;;;;;;14.27;8.70;;;18.50;51.40;;;;;;4959250;28;20473;-46
2022/04/13 11:35:28;;;;;;;11.47;7.63;;;18.50;51.00;;;;;;4968240;28;21019;-46
2022/04/13 11:38:05;;;;;;;9.80;8.10;;;18.50;51.20;;;;;;4968840;28;21024;-47
2022/04/13 11:40:31;;;;;;;12.90;8.07;;;18.60;51.00;;;;;;4969846;28;20492;-47
2022/04/13 11:43:00;;;;;;;15.57;8.70;;;18.50;51.20;;;;;;4971258;28;20861;-47
2022/04/13 11:45:28;;;;;;;12.80;8.43;;;18.50;51.70;;;;;;4971398;28;20951;-46
2022/04/13 11:48:00;;;;;;;12.77;8.37;;;18.60;52.00;;;;;;4971603;28;20444;-45
2022/04/13 11:50:28;;;;;;;15.07;8.27;;;18.60;51.70;;;;;;4970801;28;20456;-48
2022/04/13 11:52:58;;;;;;;12.07;7.27;;;18.70;51.50;;;;;;4974574;28;20807;-46
2022/04/13 11:55:26;;;;;;;10.67;7.27;;;18.80;51.10;;;;;;5012711;28;20936;-45
2022/04/13 11:58:22;;;;;;;10.77;7.37;;;18.40;50.50;;;;;;5012440;28;20478;-46
2022/04/13 12:00:59;;;;;;;9.20;7.60;;;18.60;50.60;;;;;;5012284;28;20448;-45
2022/04/13 12:03:28;;;;;;;9.90;7.47;;;18.60;50.50;;;;;;5012316;28;20934;-46
2022/04/13 12:05:56;;;;;;;9.90;7.80;;;18.60;50.50;;;;;;5012162;28;20448;-45
2022/04/13 12:08:25;;;;;;;11.00;7.80;;;18.50;50.50;;;;;;5012149;28;20436;-46
2022/04/13 12:10:56;;;;;;;13.53;7.20;;;18.80;50.60;;;;;;5012367;28;20439;-46
2022/04/13 12:13:24;;;;;;;14.50;8.40;;;18.60;50.50;;;;;;5027244;28;20507;-48
2022/04/13 12:15:52;;;;;;;10.20;7.53;;;19.00;50.90;;;;;;5012561;28;20440;-46
2022/04/13 12:18:21;;;;;;;11.57;9.13;;;18.90;50.80;;;;;;5011792;28;20482;-47
2022/04/13 12:20:49;;;;;;;12.00;8.67;;;19.10;51.10;;;;;;5011548;28;20439;-46
2022/04/13 12:23:20;;;;;;;9.80;7.87;;;18.70;50.90;;;;;;5012692;28;20467;-46
2022/04/13 12:25:49;;;;;;;8.40;6.20;;;18.70;50.90;;;;;;5015260;28;20801;-45
2022/04/13 12:28:16;;;;;;;9.57;7.07;;;19.00;50.90;;;;;;5014998;28;20463;-46
2022/04/13 12:30:43;;;;;;;15.70;7.60;;;18.80;50.80;;;;;;5014970;28;20450;-48
2022/04/13 12:33:13;;;;;;;9.90;7.40;;;19.20;51.20;;;;;;5014726;28;20853;-47
2022/04/13 12:35:49;;;;;;;9.07;6.73;;;19.30;50.90;;;;;;5014466;28;20519;-46
2022/04/13 12:38:31;;;;;;;8.23;6.93;;;19.20;50.40;;;;;;5014228;28;20912;-46
2022/04/13 12:41:08;;;;;;;10.03;7.70;;;19.40;50.50;;;;;;5014321;28;20435;-46
2022/04/13 12:43:36;;;;;;;10.23;6.53;;;19.00;50.20;;;;;;5014178;28;20818;-45
2022/04/13 12:46:14;;;;;;;11.60;6.40;;;19.40;50.40;;;;;;5014409;28;20472;-47
2022/04/13 12:48:42;;;;;;;9.63;7.77;;;19.60;50.60;;;;;;5014291;28;20459;-45
2022/04/13 12:51:11;;;;;;;13.97;6.87;;;19.30;50.40;;;;;;5014570;28;20509;-47